createdAt,value
2022-08-10T00:00:56.766Z,100141.50
2022-08-10T00:03:23.595Z,100145.63
2022-08-10T00:05:52.816Z,100149.75
2022-08-10T00:08:23.530Z,100149.00
2022-08-10T00:10:55.813Z,100144.59
2022-08-10T00:13:23.854Z,100145.59
2022-08-10T00:15:54.237Z,100139.91
2022-08-10T00:18:31.499Z,100142.03
2022-08-10T00:21:04.628Z,100139.38
2022-08-10T00:23:33.042Z,100150.03
2022-08-10T00:26:00.203Z,100137.06
2022-08-10T00:28:26.983Z,100133.97
2022-08-10T00:30:54.005Z,100133.22
2022-08-10T00:33:20.904Z,100137.09
2022-08-10T00:35:47.893Z,100131.22
2022-08-10T00:38:14.534Z,100131.03
2022-08-10T00:40:41.063Z,100124.28
2022-08-10T00:43:07.916Z,100131.25
2022-08-10T00:45:35.458Z,100128.28
2022-08-10T00:48:02.283Z,100124.19
2022-08-10T00:50:29.099Z,100116.34
2022-08-10T00:52:55.974Z,100125.25
2022-08-10T00:55:22.493Z,100116.34
2022-08-10T00:57:55.170Z,100117.41
2022-08-10T01:00:25.091Z,100116.03
2022-08-10T01:02:51.941Z,100123.88
2022-08-10T01:05:20.357Z,100117.56
2022-08-10T01:07:50.299Z,100115.19
2022-08-10T01:10:38.874Z,100117.13
2022-08-10T01:13:22.218Z,100113.00
2022-08-10T01:16:04.350Z,100114.13
2022-08-10T01:18:53.815Z,100106.34
2022-08-10T01:21:54.307Z,100110.63
2022-08-10T01:24:53.757Z,100107.09
2022-08-10T01:27:38.478Z,100105.47
2022-08-10T01:30:09.811Z,100116.19
2022-08-10T01:32:55.219Z,100108.59
2022-08-10T01:35:28.544Z,100106.53
2022-08-10T01:38:03.578Z,100106.38
2022-08-10T01:40:34.031Z,100100.94
2022-08-10T01:43:08.344Z,100099.44
2022-08-10T01:45:44.718Z,100104.53
2022-08-10T01:48:28.642Z,100110.13
2022-08-10T01:51:09.178Z,100106.41
2022-08-10T01:53:41.918Z,100105.72
2022-08-10T01:56:12.554Z,100101.66
2022-08-10T01:58:40.470Z,100099.09
2022-08-10T02:01:11.027Z,100102.47
2022-08-10T02:04:05.105Z,100098.88
2022-08-10T02:06:39.857Z,100098.81
2022-08-10T02:09:07.963Z,100098.50
2022-08-10T02:12:06.705Z,100108.53
2022-08-10T02:14:34.034Z,100116.34
2022-08-10T02:17:58.125Z,100104.81
2022-08-10T02:20:16.736Z,100103.84
2022-08-10T02:22:45.373Z,100115.34
2022-08-10T02:25:42.643Z,100113.84
2022-08-10T02:28:03.202Z,100115.72
2022-08-10T02:30:30.939Z,100118.78
2022-08-10T02:32:59.054Z,100120.81
2022-08-10T02:35:27.916Z,100123.03
2022-08-10T02:38:10.030Z,100122.50
2022-08-10T02:45:15.100Z,100117.59
2022-08-10T02:45:20.124Z,100124.88
2022-08-10T02:46:48.745Z,100115.38
2022-08-10T02:49:27.470Z,100137.09
2022-08-10T02:52:06.408Z,100124.63
2022-08-10T02:54:43.212Z,100135.66
2022-08-10T02:57:16.312Z,100133.91
2022-08-10T02:59:50.226Z,100140.97
2022-08-10T03:02:35.114Z,100139.03
2022-08-10T03:05:06.852Z,100144.25
2022-08-10T03:07:46.143Z,100141.84
2022-08-10T03:10:17.326Z,100136.75
2022-08-10T03:12:49.853Z,100137.00
2022-08-10T03:15:18.479Z,100136.28
2022-08-10T03:17:57.780Z,100138.06
2022-08-10T03:20:37.831Z,100142.81
2022-08-10T03:23:11.294Z,100138.50
2022-08-10T03:25:38.766Z,100135.44
2022-08-10T03:28:06.708Z,100135.94
2022-08-10T03:30:34.575Z,100124.72
2022-08-10T03:33:04.024Z,100132.78
2022-08-10T03:35:31.394Z,100133.41
2022-08-10T03:38:00.160Z,100128.63
2022-08-10T03:40:45.602Z,100132.81
2022-08-10T03:43:17.410Z,100130.41
2022-08-10T03:45:54.135Z,100134.03
2022-08-10T03:48:44.762Z,100127.25
2022-08-10T03:51:14.540Z,100137.38
2022-08-10T03:54:03.561Z,100133.59
2022-08-10T03:56:32.060Z,100126.94
2022-08-10T03:59:00.391Z,100133.53
2022-08-10T04:02:46.746Z,100131.66
2022-08-10T04:04:19.290Z,100134.50
2022-08-10T04:06:51.504Z,100133.81
2022-08-10T04:09:29.769Z,100132.44
2022-08-10T04:12:11.210Z,100144.09
2022-08-10T04:14:49.058Z,100137.84
2022-08-10T04:17:16.885Z,100134.75
2022-08-10T04:19:49.098Z,100145.72
2022-08-10T04:22:19.034Z,100145.03
2022-08-10T04:24:48.315Z,100142.06
2022-08-10T04:27:15.633Z,100144.94
2022-08-10T04:29:43.571Z,100143.06
2022-08-10T04:32:11.013Z,100145.91
2022-08-10T04:34:42.019Z,100142.69
2022-08-10T04:37:10.857Z,100143.13
2022-08-10T04:39:39.652Z,100150.38
2022-08-10T04:42:06.994Z,100143.66
2022-08-10T04:44:34.283Z,100144.06
2022-08-10T04:47:00.770Z,100145.31
2022-08-10T04:49:55.679Z,100145.88
2022-08-10T04:52:14.450Z,100132.59
2022-08-10T04:54:41.675Z,100135.84
2022-08-10T04:57:09.088Z,100133.91
2022-08-10T04:59:36.408Z,100130.03
2022-08-10T05:02:29.770Z,100134.53
2022-08-10T05:04:49.726Z,100131.72
2022-08-10T05:07:18.362Z,100136.38
2022-08-10T05:10:02.394Z,100139.16
2022-08-10T05:12:37.445Z,100141.22
2022-08-10T05:15:09.843Z,100140.09
2022-08-10T05:17:40.152Z,100141.88
2022-08-10T05:20:09.415Z,100124.63
2022-08-10T05:22:41.693Z,100114.94
2022-08-10T05:25:14.245Z,100123.59
2022-08-10T05:27:41.811Z,100109.59
2022-08-10T05:30:11.372Z,100108.09
2022-08-10T05:32:59.131Z,100108.28
2022-08-10T05:35:28.888Z,100107.63
2022-08-10T05:38:17.045Z,100109.06
2022-08-10T05:40:47.390Z,100107.25
2022-08-10T05:43:20.548Z,100112.72
2022-08-10T05:46:18.084Z,100120.13
2022-08-10T05:48:55.362Z,100133.09
2022-08-10T05:51:25.330Z,100128.44
2022-08-10T05:54:02.154Z,100135.31
2022-08-10T05:56:53.891Z,100131.81
2022-08-10T06:00:31.185Z,100138.81
2022-08-10T06:02:33.507Z,100144.59
2022-08-10T06:05:05.746Z,100136.34
2022-08-10T06:07:33.186Z,100142.44
2022-08-10T06:10:01.946Z,100144.78
2022-08-10T06:12:30.676Z,100146.59
2022-08-10T06:15:05.848Z,100135.16
2022-08-10T06:17:38.366Z,100148.16
2022-08-10T06:20:05.920Z,100145.31
2022-08-10T06:22:33.334Z,100147.38
2022-08-10T06:27:50.741Z,100145.44
2022-08-10T06:30:20.019Z,100154.56
2022-08-10T06:32:52.522Z,100143.28
2022-08-10T06:35:20.666Z,100151.16
2022-08-10T06:37:50.914Z,100146.16
2022-08-10T06:40:19.561Z,100144.41
2022-08-10T06:42:48.785Z,100148.09
2022-08-10T06:45:31.296Z,100148.31
2022-08-10T06:48:17.985Z,100149.94
2022-08-10T06:50:58.035Z,100146.44
2022-08-10T06:53:52.825Z,100155.13
2022-08-10T06:56:36.829Z,100156.06
2022-08-10T06:59:24.504Z,100161.81
2022-08-10T07:01:57.474Z,100161.16
2022-08-10T07:04:33.745Z,100156.53
2022-08-10T07:07:06.533Z,100159.34
2022-08-10T07:09:38.151Z,100163.03
2022-08-10T07:12:09.623Z,100156.03
2022-08-10T07:14:42.465Z,100155.13
2022-08-10T07:17:19.585Z,100158.66
2022-08-10T07:19:52.412Z,100164.19
2022-08-10T07:23:01.504Z,100165.25
2022-08-10T07:25:22.397Z,100158.47
2022-08-10T07:27:59.617Z,100158.78
2022-08-10T07:30:30.370Z,100151.50
2022-08-10T07:32:57.565Z,100154.09
2022-08-10T07:35:27.012Z,100155.47
2022-08-10T07:37:55.003Z,100151.78
2022-08-10T07:40:23.414Z,100148.72
2022-08-10T07:42:53.915Z,100149.25
2022-08-10T07:45:20.673Z,100151.63
2022-08-10T07:48:05.147Z,100152.69
2022-08-10T07:50:36.252Z,100149.84
2022-08-10T07:53:05.001Z,100154.94
2022-08-10T07:56:03.407Z,100149.44
2022-08-10T07:58:25.124Z,100149.66
2022-08-10T08:00:53.862Z,100152.63
2022-08-10T08:03:25.456Z,100158.09
2022-08-10T08:05:59.376Z,100158.72
2022-08-10T08:08:31.982Z,100157.72
2022-08-10T08:10:59.570Z,100163.81
2022-08-10T08:13:29.411Z,100163.81
2022-08-10T08:16:18.399Z,100172.88
2022-08-10T08:18:58.366Z,100176.44
2022-08-10T08:24:08.953Z,100168.81
2022-08-10T08:24:32.598Z,100178.72
2022-08-10T08:27:05.668Z,100176.16
2022-08-10T08:29:35.301Z,100174.06
2022-08-10T08:32:04.691Z,100176.34
2022-08-10T08:34:37.877Z,100177.78
2022-08-10T08:37:07.254Z,100173.56
2022-08-10T08:39:35.975Z,100161.91
2022-08-10T08:42:24.202Z,100158.66
2022-08-10T08:45:25.167Z,100163.47
2022-08-10T08:48:06.446Z,100165.47
2022-08-10T08:51:08.658Z,100160.41
2022-08-10T08:54:01.838Z,100151.25
2022-08-10T08:56:50.428Z,100148.16
2022-08-10T08:59:47.480Z,100150.41
2022-08-10T09:02:54.841Z,100142.09
2022-08-10T09:05:31.112Z,100130.00
2022-08-10T09:08:47.836Z,100127.72
2022-08-10T09:11:52.243Z,100131.06
2022-08-10T09:14:40.890Z,100124.56
2022-08-10T09:17:36.378Z,100118.91
2022-08-10T09:20:19.197Z,100121.81
2022-08-10T09:23:06.503Z,100115.66
2022-08-10T09:25:36.200Z,100113.69
2022-08-10T09:28:26.650Z,100104.06
2022-08-10T09:31:22.004Z,100102.22
2022-08-10T09:36:20.696Z,100107.47
2022-08-10T09:37:24.428Z,100106.38
2022-08-10T09:41:03.981Z,100096.00
2022-08-10T09:44:05.754Z,100106.25
2022-08-10T09:46:46.362Z,100102.03
2022-08-10T09:49:53.408Z,100104.44
2022-08-10T09:52:29.502Z,100094.59
2022-08-10T09:55:08.425Z,100084.28
2022-08-10T09:57:46.576Z,100084.78
2022-08-10T10:00:20.388Z,100078.41
2022-08-10T10:03:08.983Z,100085.13
2022-08-10T10:05:52.558Z,100061.19
2022-08-10T10:08:22.152Z,100062.47
2022-08-10T10:11:03.110Z,100072.50
2022-08-10T10:14:02.125Z,100060.44
2022-08-10T10:16:52.497Z,100066.97
2022-08-10T10:19:22.068Z,100059.34
2022-08-10T10:22:08.267Z,100062.09
2022-08-10T10:25:00.531Z,100058.41
2022-08-10T10:27:48.062Z,100055.81
2022-08-10T10:30:17.188Z,100055.91
2022-08-10T10:33:08.782Z,100056.72
2022-08-10T10:35:48.941Z,100052.06
2022-08-10T10:38:18.208Z,100043.03
2022-08-10T10:42:03.372Z,100041.41
2022-08-10T10:44:51.098Z,100032.28
2022-08-10T10:47:42.265Z,100038.91
2022-08-10T10:50:15.701Z,100029.72
2022-08-10T10:53:02.932Z,100035.72
2022-08-10T10:56:13.834Z,100024.91
2022-08-10T10:59:33.457Z,100012.63
2022-08-10T11:02:15.357Z,100025.88
2022-08-10T11:05:14.938Z,100018.19
2022-08-10T11:07:53.418Z,100013.38
2022-08-10T11:10:46.887Z,100012.16
2022-08-10T11:14:27.499Z,100008.72
2022-08-10T11:16:55.813Z,100020.63
2022-08-10T11:20:00.490Z,100011.00
2022-08-10T11:22:44.580Z,100008.59
2022-08-10T11:25:25.554Z,100002.31
2022-08-10T11:28:07.554Z,100006.41
2022-08-10T11:30:46.356Z,100002.75
2022-08-10T11:34:03.913Z,99982.28
2022-08-10T11:36:49.134Z,99982.63
2022-08-10T11:39:49.770Z,99996.44
2022-08-10T11:42:37.802Z,99993.63
2022-08-10T11:45:11.910Z,99987.66
2022-08-10T11:47:56.877Z,99985.41
2022-08-10T11:50:28.731Z,99982.44
2022-08-10T11:53:19.591Z,99985.50
2022-08-10T11:55:52.686Z,99978.16
2022-08-10T11:58:41.005Z,99977.31
2022-08-10T12:01:10.834Z,99986.66
2022-08-10T12:03:41.540Z,99972.22
2022-08-10T12:06:13.453Z,99971.66
2022-08-10T12:10:05.323Z,99977.84
2022-08-10T12:11:34.177Z,99968.31
2022-08-10T12:14:21.903Z,99957.97
2022-08-10T12:17:13.334Z,99947.91
2022-08-10T12:19:59.431Z,99953.13
2022-08-10T12:22:56.955Z,99946.59
2022-08-10T12:25:56.841Z,99946.81
2022-08-10T12:28:55.353Z,99941.94
2022-08-10T12:31:30.123Z,99938.34
2022-08-10T12:34:14.515Z,99931.53
2022-08-10T12:36:51.493Z,99939.81
2022-08-10T12:39:30.998Z,99927.31
2022-08-10T12:42:06.231Z,99933.75
2022-08-10T12:44:44.895Z,99929.78
2022-08-10T12:47:28.089Z,99928.50
2022-08-10T12:50:30.709Z,99920.97
2022-08-10T12:52:55.309Z,99920.03
2022-08-10T12:55:23.363Z,99909.63
2022-08-10T12:57:56.266Z,99907.31
2022-08-10T13:00:34.230Z,99906.00
2022-08-10T13:03:03.228Z,99904.69
2022-08-10T13:05:54.909Z,99890.44
2022-08-10T13:08:40.389Z,99897.72
2022-08-10T13:11:20.200Z,99894.03
2022-08-10T13:14:07.684Z,99882.81
2022-08-10T13:16:34.837Z,99886.97
2022-08-10T13:19:03.846Z,99889.41
2022-08-10T13:21:35.857Z,99886.22
2022-08-10T13:24:14.869Z,99888.28
2022-08-10T13:27:26.884Z,99884.16
2022-08-10T13:30:01.549Z,99868.44
2022-08-10T13:32:33.233Z,99867.13
2022-08-10T13:35:06.912Z,99868.34
2022-08-10T13:37:36.048Z,99867.16
2022-08-10T13:40:05.336Z,99863.63
2022-08-10T13:42:37.038Z,99864.44
2022-08-10T13:45:10.087Z,99861.78
2022-08-10T13:47:48.155Z,99858.25
2022-08-10T13:50:20.872Z,99860.97
2022-08-10T13:53:01.767Z,99863.09
2022-08-10T13:55:53.269Z,99857.25
2022-08-10T13:58:22.180Z,99849.78
2022-08-10T14:00:49.715Z,99853.78
2022-08-10T14:03:17.586Z,99846.97
2022-08-10T14:05:50.728Z,99848.41
2022-08-10T14:08:25.800Z,99855.88
2022-08-10T14:11:08.507Z,99842.56
2022-08-10T14:13:43.361Z,99841.09
2022-08-10T14:16:11.773Z,99847.19
2022-08-10T14:18:42.012Z,99837.28
2022-08-10T14:21:08.745Z,99831.72
2022-08-10T14:23:52.260Z,99822.03
2022-08-10T14:26:23.910Z,99813.47
2022-08-10T14:28:55.113Z,99809.84
2022-08-10T14:31:29.032Z,99805.41
2022-08-10T14:33:58.348Z,99820.03
2022-08-10T14:36:33.141Z,99818.06
2022-08-10T14:39:02.406Z,99816.16
2022-08-10T14:42:04.456Z,99813.38
2022-08-10T14:44:20.912Z,99814.00
2022-08-10T14:46:52.163Z,99809.00
2022-08-10T14:49:25.291Z,99803.72
2022-08-10T14:51:57.809Z,99807.00
2022-08-10T14:54:29.556Z,99798.44
2022-08-10T14:57:11.290Z,99790.66
2022-08-10T15:00:25.269Z,99800.09
2022-08-10T15:02:39.932Z,99791.25
2022-08-10T15:05:22.077Z,99805.41
2022-08-10T15:07:58.940Z,99805.91
2022-08-10T15:10:27.132Z,99800.34
2022-08-10T15:12:58.915Z,99794.22
2022-08-10T15:15:29.137Z,99789.72
2022-08-10T15:17:58.300Z,99794.75
2022-08-10T15:20:27.899Z,99789.22
2022-08-10T15:23:03.204Z,99785.69
2022-08-10T15:25:30.460Z,99778.44
2022-08-10T15:28:04.948Z,99767.34
2022-08-10T15:30:39.585Z,99776.78
2022-08-10T15:33:56.665Z,99773.41
2022-08-10T15:36:38.901Z,99776.72
2022-08-10T15:40:22.337Z,99774.25
2022-08-10T15:42:07.447Z,99777.91
2022-08-10T15:44:43.239Z,99763.16
2022-08-10T15:47:15.673Z,99777.59
2022-08-10T15:50:04.471Z,99762.56
2022-08-10T15:53:01.126Z,99750.66
2022-08-10T15:55:44.217Z,99749.00
2022-08-10T15:58:39.210Z,99748.41
2022-08-10T16:02:04.013Z,99754.53
2022-08-10T16:04:50.176Z,99752.25
2022-08-10T16:07:21.740Z,99754.44
2022-08-10T16:10:23.039Z,99752.69
2022-08-10T16:12:59.622Z,99744.41
2022-08-10T16:15:29.259Z,99743.31
2022-08-10T16:18:03.850Z,99751.06
2022-08-10T16:20:55.261Z,99747.75
2022-08-10T16:23:34.213Z,99747.72
2022-08-10T16:26:15.663Z,99747.16
2022-08-10T16:28:58.603Z,99751.91
2022-08-10T16:31:29.108Z,99743.56
2022-08-10T16:33:59.052Z,99748.84
2022-08-10T16:36:42.458Z,99746.81
2022-08-10T16:39:15.568Z,99736.53
2022-08-10T16:42:03.156Z,99746.94
2022-08-10T16:44:39.307Z,99753.09
2022-08-10T16:47:09.025Z,99753.50
2022-08-10T16:49:38.615Z,99747.63
2022-08-10T16:52:06.225Z,99747.38
2022-08-10T16:54:36.168Z,99750.72
2022-08-10T16:57:04.577Z,99741.50
2022-08-10T16:59:36.836Z,99738.22
2022-08-10T17:02:06.422Z,99733.75
2022-08-10T17:04:36.409Z,99730.16
2022-08-10T17:07:14.638Z,99742.88
2022-08-10T17:09:48.247Z,99729.03
2022-08-10T17:12:18.977Z,99734.50
2022-08-10T17:14:46.269Z,99742.78
2022-08-10T17:17:27.717Z,99735.59
2022-08-10T17:20:30.601Z,99736.72
2022-08-10T17:22:54.194Z,99735.22
2022-08-10T17:25:25.465Z,99737.13
2022-08-10T17:28:13.744Z,99731.72
2022-08-10T17:31:24.060Z,99734.81
2022-08-10T17:34:01.460Z,99740.31
2022-08-10T17:36:36.030Z,99741.09
2022-08-10T17:39:04.786Z,99737.88
2022-08-10T17:41:36.584Z,99735.78
2022-08-10T17:44:05.919Z,99735.47
2022-08-10T17:46:36.348Z,99733.75
2022-08-10T17:49:07.795Z,99736.66
2022-08-10T17:51:36.831Z,99739.94
2022-08-10T17:54:09.161Z,99734.53
2022-08-10T17:56:37.921Z,99736.94
2022-08-10T17:59:17.077Z,99736.44
2022-08-10T18:01:58.704Z,99733.44
2022-08-10T18:04:35.550Z,99734.25
2022-08-10T18:07:09.794Z,99732.69
2022-08-10T18:09:44.514Z,99732.41
2022-08-10T18:12:17.829Z,99733.94
2022-08-10T18:14:50.070Z,99734.53
2022-08-10T18:17:33.875Z,99744.19
2022-08-10T18:20:07.970Z,99749.03
2022-08-10T18:22:43.852Z,99744.47
2022-08-10T18:25:17.511Z,99754.28
2022-08-10T18:28:00.910Z,99754.13
2022-08-10T18:30:30.160Z,99759.34
2022-08-10T18:33:04.487Z,99757.00
2022-08-10T18:35:34.992Z,99755.47
2022-08-10T18:38:02.882Z,99762.16
2022-08-10T18:40:36.326Z,99760.34
2022-08-10T18:44:04.443Z,99761.31
2022-08-10T18:45:58.586Z,99767.19
2022-08-10T18:48:37.201Z,99764.78
2022-08-10T18:51:06.300Z,99770.53
2022-08-10T18:53:48.064Z,99766.78
2022-08-10T18:56:20.789Z,99772.06
2022-08-10T18:59:12.384Z,99778.91
2022-08-10T19:02:01.741Z,99777.13
2022-08-10T19:04:42.003Z,99776.50
2022-08-10T19:07:36.082Z,99784.72
2022-08-10T19:10:24.575Z,99788.06
2022-08-10T19:13:04.051Z,99799.81
2022-08-10T19:15:30.552Z,99795.16
2022-08-10T19:18:31.566Z,99794.47
2022-08-10T19:21:37.510Z,99805.97
2022-08-10T19:24:13.553Z,99804.13
2022-08-10T19:26:51.908Z,99806.09
2022-08-10T19:30:07.911Z,99805.09
2022-08-10T19:32:43.961Z,99810.19
2022-08-10T19:36:03.803Z,99807.69
2022-08-10T19:38:33.959Z,99804.75
2022-08-10T19:41:44.453Z,99805.22
2022-08-10T19:44:51.246Z,99809.22
2022-08-10T19:47:24.425Z,99813.47
2022-08-10T19:50:09.143Z,99813.25
2022-08-10T19:52:53.882Z,99822.53
2022-08-10T19:55:39.024Z,99817.84
2022-08-10T19:58:32.312Z,99817.00
2022-08-10T20:01:01.620Z,99817.84
2022-08-10T20:03:41.631Z,99825.41
2022-08-10T20:06:20.045Z,99826.63
2022-08-10T20:08:53.057Z,99827.47
2022-08-10T20:11:45.531Z,99827.06
2022-08-10T20:14:25.487Z,99828.28
2022-08-10T20:17:00.267Z,99832.28
2022-08-10T20:20:02.971Z,99830.38
2022-08-10T20:22:35.815Z,99830.00
2022-08-10T20:25:14.206Z,99832.72
2022-08-10T20:28:01.633Z,99832.06
2022-08-10T20:30:33.226Z,99843.03
2022-08-10T20:33:17.775Z,99840.75
2022-08-10T20:35:47.542Z,99840.53
2022-08-10T20:38:30.141Z,99840.75
2022-08-10T20:41:24.709Z,99839.25
2022-08-10T20:44:12.372Z,99843.84
2022-08-10T20:47:11.838Z,99849.28
2022-08-10T20:49:52.340Z,99849.25
2022-08-10T20:52:24.691Z,99853.25
2022-08-10T20:54:57.898Z,99855.91
2022-08-10T20:58:04.793Z,99849.34
2022-08-10T21:00:54.261Z,99852.47
2022-08-10T21:03:33.783Z,99851.63
2022-08-10T21:06:43.250Z,99847.25
2022-08-10T21:09:58.667Z,99845.75
2022-08-10T21:12:46.403Z,99850.94
2022-08-10T21:15:41.584Z,99841.47
2022-08-10T21:18:08.597Z,99848.16
2022-08-10T21:23:38.821Z,99843.47
2022-08-10T21:25:41.617Z,99846.00
2022-08-10T21:26:15.276Z,99844.28
2022-08-10T21:29:10.024Z,99839.25
2022-08-10T21:31:58.851Z,99841.09
2022-08-10T21:34:54.203Z,99843.53
2022-08-10T21:37:56.710Z,99841.00
2022-08-10T21:41:18.142Z,99834.84
2022-08-10T21:44:08.932Z,99838.13
2022-08-10T21:47:38.066Z,99846.25
2022-08-10T21:50:28.578Z,99856.00
2022-08-10T21:53:43.773Z,99851.06
2022-08-10T21:56:55.369Z,99843.25
2022-08-10T21:59:56.389Z,99841.84
2022-08-10T22:02:49.875Z,99841.03
2022-08-10T22:05:42.667Z,99837.66
2022-08-10T22:08:28.983Z,99829.59
2022-08-10T22:11:17.319Z,99841.69
2022-08-10T22:14:09.540Z,99839.78
2022-08-10T22:17:03.668Z,99838.59
2022-08-10T22:19:51.943Z,99831.59
2022-08-10T22:22:56.310Z,99836.59
2022-08-10T22:25:53.879Z,99836.69
2022-08-10T22:28:39.205Z,99834.72
2022-08-10T22:34:43.573Z,99840.94
2022-08-10T22:37:45.656Z,99838.50
2022-08-10T22:40:36.179Z,99834.66
2022-08-10T22:43:35.834Z,99836.22
2022-08-10T22:46:28.343Z,99836.81
2022-08-10T22:49:01.389Z,99838.19
2022-08-10T22:51:43.416Z,99837.81
2022-08-10T22:54:41.572Z,99836.38
2022-08-10T22:57:31.767Z,99834.97
2022-08-10T22:59:59.077Z,99840.47
2022-08-10T23:02:32.329Z,99838.31
2022-08-10T23:05:11.110Z,99835.22
2022-08-10T23:07:58.207Z,99829.84
2022-08-10T23:10:29.145Z,99828.88
2022-08-10T23:13:24.380Z,99831.47
2022-08-10T23:16:32.231Z,99835.09
2022-08-10T23:19:11.405Z,99832.38
2022-08-10T23:22:03.408Z,99823.09
2022-08-10T23:25:11.525Z,99821.94
2022-08-10T23:27:40.632Z,99818.19
2022-08-10T23:30:17.447Z,99815.00
2022-08-10T23:32:49.162Z,99818.94
2022-08-10T23:36:13.019Z,99818.63
2022-08-10T23:38:07.007Z,99824.06
2022-08-10T23:40:35.212Z,99827.63
2022-08-10T23:43:03.168Z,99816.78
2022-08-10T23:45:52.593Z,99819.19
2022-08-10T23:48:24.898Z,99819.34
2022-08-10T23:50:59.677Z,99817.50
2022-08-10T23:53:27.980Z,99820.56
2022-08-10T23:56:00.326Z,99814.97
2022-08-10T23:58:34.188Z,99820.06
